Terminal Aerodrome Forecast
Issued by NWS Shreveport, LA

Home | Current Version | Previous Version | Text Only | Print | Product List | Glossary On
Versions: 1 2 3 4 5 6 7 8 9 10 11 12
000
FTUS44 KSHV 161720
TAFMLU
TAF
KMLU 161720Z 1618/1718 18006KT P6SM BKN250
     FM162200 14004KT P6SM BKN120 BKN250
     FM170000 12003KT P6SM BKN080
     FM170500 11005KT P6SM VCSH BKN035 BKN080
     FM170800 VRB05KT 2SM SHRA BR OVC004
     FM171600 08005KT 4SM BR VCSH OVC007=

USA.gov is the U.S. government's official web portal to all federal, state and local government web resources and services.